sensor_id;sensor_type;location;lat;lon;timestamp;pressure;altitude;pressure_sealevel;temperature;humidity
7586;BME280;12459;42.646;23.292;2024-02-16T00:07:10;94210.66;;;3.65;82.64
7586;BME280;12459;42.646;23.292;2024-02-16T00:22:12;94136.53;;;3.17;84.68
7586;BME280;12459;42.646;23.292;2024-02-16T00:37:14;94033.00;;;1.72;89.20
7586;BME280;12459;42.646;23.292;2024-02-16T00:52:16;93541.16;;;-1.91;92.31
7586;BME280;12459;42.646;23.292;2024-02-16T01:07:17;94250.81;;;3.19;90.97
7586;BME280;12459;42.646;23.292;2024-02-16T01:22:19;94071.56;;;1.49;92.98
7586;BME280;12459;42.646;23.292;2024-02-16T01:37:21;94088.72;;;1.43;96.96
7586;BME280;12459;42.646;23.292;2024-02-16T01:52:23;93683.78;;;-1.67;94.97
7586;BME280;12459;42.646;23.292;2024-02-16T02:07:26;93941.81;;;0.46;93.31
7586;BME280;12459;42.646;23.292;2024-02-16T02:22:31;93833.81;;;0.09;92.28
7586;BME280;12459;42.646;23.292;2024-02-16T02:37:33;93747.44;;;-0.34;94.08
7586;BME280;12459;42.646;23.292;2024-02-16T02:52:34;94049.53;;;1.57;96.27
7586;BME280;12459;42.646;23.292;2024-02-16T03:07:36;94225.19;;;2.40;96.94
7586;BME280;12459;42.646;23.292;2024-02-16T03:22:38;94211.94;;;2.80;95.62
7586;BME280;12459;42.646;23.292;2024-02-16T03:37:40;94031.75;;;2.10;91.63
7586;BME280;12459;42.646;23.292;2024-02-16T03:52:42;94228.81;;;2.47;96.15
7586;BME280;12459;42.646;23.292;2024-02-16T04:07:44;94079.94;;;1.26;97.10
7586;BME280;12459;42.646;23.292;2024-02-16T04:22:46;94227.50;;;3.25;94.84
7586;BME280;12459;42.646;23.292;2024-02-16T04:37:47;94226.31;;;3.38;92.87
7586;BME280;12459;42.646;23.292;2024-02-16T04:52:49;94057.72;;;1.80;92.44
7586;BME280;12459;42.646;23.292;2024-02-16T05:07:51;94053.69;;;1.06;98.09
7586;BME280;12459;42.646;23.292;2024-02-16T05:22:53;93945.22;;;0.58;94.78
7586;BME280;12459;42.646;23.292;2024-02-16T05:37:55;94086.13;;;1.06;98.82
7586;BME280;12459;42.646;23.292;2024-02-16T05:52:56;93882.41;;;-0.01;93.94
7586;BME280;12459;42.646;23.292;2024-02-16T06:07:58;93942.25;;;0.60;95.18
7586;BME280;12459;42.646;23.292;2024-02-16T06:23:01;94108.13;;;3.02;89.25
7586;BME280;12459;42.646;23.292;2024-02-16T06:38:03;94151.03;;;4.44;82.07
7586;BME280;12459;42.646;23.292;2024-02-16T06:53:05;94305.44;;;6.08;81.02
7586;BME280;12459;42.646;23.292;2024-02-16T07:08:07;94032.47;;;4.48;77.29
7586;BME280;12459;42.646;23.292;2024-02-16T07:23:09;93845.97;;;3.99;74.69
7586;BME280;12459;42.646;23.292;2024-02-16T07:38:12;94238.50;;;7.22;70.51
7586;BME280;12459;42.646;23.292;2024-02-16T07:53:14;94273.59;;;7.65;68.11
7586;BME280;12459;42.646;23.292;2024-02-16T08:08:16;93969.19;;;6.16;67.66
7586;BME280;12459;42.646;23.292;2024-02-16T08:23:18;93871.19;;;5.85;66.58
7586;BME280;12459;42.646;23.292;2024-02-16T08:38:19;94266.50;;;8.27;67.28
7586;BME280;12459;42.646;23.292;2024-02-16T08:53:21;94135.69;;;7.65;64.14
7586;BME280;12459;42.646;23.292;2024-02-16T09:08:23;94163.84;;;8.18;63.31
7586;BME280;12459;42.646;23.292;2024-02-16T09:23:26;93917.78;;;7.00;62.79
7586;BME280;12459;42.646;23.292;2024-02-16T09:38:28;93939.22;;;7.18;60.88
7586;BME280;12459;42.646;23.292;2024-02-16T09:53:30;93896.78;;;7.57;60.24
7586;BME280;12459;42.646;23.292;2024-02-16T10:08:32;94130.63;;;8.95;58.88
7586;BME280;12459;42.646;23.292;2024-02-16T10:23:34;93690.59;;;6.17;57.85
7586;BME280;12459;42.646;23.292;2024-02-16T10:38:44;94029.81;;;8.71;58.21
7586;BME280;12459;42.646;23.292;2024-02-16T10:53:47;94066.53;;;9.45;58.52
7586;BME280;12459;42.646;23.292;2024-02-16T11:08:52;93958.81;;;8.98;55.77
7586;BME280;12459;42.646;23.292;2024-02-16T11:24:06;94250.47;;;11.52;54.36
7586;BME280;12459;42.646;23.292;2024-02-16T11:39:14;94030.19;;;10.77;52.47
7586;BME280;12459;42.646;23.292;2024-02-16T11:54:19;94135.22;;;11.87;52.16
7586;BME280;12459;42.646;23.292;2024-02-16T12:09:21;94018.22;;;11.37;51.92
7586;BME280;12459;42.646;23.292;2024-02-16T12:24:24;93997.75;;;11.58;51.40
7586;BME280;12459;42.646;23.292;2024-02-16T12:39:25;93838.41;;;10.14;52.58
7586;BME280;12459;42.646;23.292;2024-02-16T12:54:27;94178.22;;;12.65;52.33
7586;BME280;12459;42.646;23.292;2024-02-16T13:09:29;93963.53;;;11.24;51.77
7586;BME280;12459;42.646;23.292;2024-02-16T13:24:31;93802.56;;;9.97;51.70
7586;BME280;12459;42.646;23.292;2024-02-16T13:39:33;94010.97;;;10.86;51.72
7586;BME280;12459;42.646;23.292;2024-02-16T13:54:35;93818.75;;;9.76;51.45
7586;BME280;12459;42.646;23.292;2024-02-16T14:09:38;94174.41;;;12.22;51.04
7586;BME280;12459;42.646;23.292;2024-02-16T14:24:40;94061.28;;;11.23;52.79
7586;BME280;12459;42.646;23.292;2024-02-16T14:39:42;94110.66;;;10.63;56.19
7586;BME280;12459;42.646;23.292;2024-02-16T14:54:44;93856.94;;;8.71;57.41
7586;BME280;12459;42.646;23.292;2024-02-16T15:09:46;93766.47;;;7.45;61.04
7586;BME280;12459;42.646;23.292;2024-02-16T15:24:47;93956.75;;;8.10;63.67
7586;BME280;12459;42.646;23.292;2024-02-16T15:39:49;94250.16;;;8.94;67.38
7586;BME280;12459;42.646;23.292;2024-02-16T15:54:51;94224.50;;;8.79;70.04
7586;BME280;12459;42.646;23.292;2024-02-16T16:09:53;93995.28;;;6.81;72.62
7586;BME280;12459;42.646;23.292;2024-02-16T16:24:56;94060.06;;;6.52;74.24
7586;BME280;12459;42.646;23.292;2024-02-16T16:39:59;94146.91;;;7.00;75.74
7586;BME280;12459;42.646;23.292;2024-02-16T16:55:01;94179.94;;;6.59;79.25
7586;BME280;12459;42.646;23.292;2024-02-16T17:10:03;93947.34;;;5.36;78.44
7586;BME280;12459;42.646;23.292;2024-02-16T17:25:07;93767.19;;;3.73;80.39
7586;BME280;12459;42.646;23.292;2024-02-16T17:40:13;94295.78;;;6.76;85.27
7586;BME280;12459;42.646;23.292;2024-02-16T17:55:15;94092.97;;;5.27;85.68
7586;BME280;12459;42.646;23.292;2024-02-16T18:10:17;94378.44;;;6.56;87.93
7586;BME280;12459;42.646;23.292;2024-02-16T18:25:19;93810.69;;;2.52;87.83
7586;BME280;12459;42.646;23.292;2024-02-16T18:40:21;93871.84;;;3.21;87.66
7586;BME280;12459;42.646;23.292;2024-02-16T18:55:27;94310.81;;;5.47;93.30
7586;BME280;12459;42.646;23.292;2024-02-16T19:10:29;93888.97;;;2.22;94.46
7586;BME280;12459;42.646;23.292;2024-02-16T19:25:32;94152.69;;;3.79;94.43
7586;BME280;12459;42.646;23.292;2024-02-16T19:40:34;94322.69;;;4.95;95.25
7586;BME280;12459;42.646;23.292;2024-02-16T19:55:37;93819.84;;;1.29;97.42
7586;BME280;12459;42.646;23.292;2024-02-16T20:10:39;94003.22;;;2.78;98.42
7586;BME280;12459;42.646;23.292;2024-02-16T20:25:40;94200.13;;;3.84;97.52
7586;BME280;12459;42.646;23.292;2024-02-16T20:40:43;94283.97;;;4.39;98.69
7586;BME280;12459;42.646;23.292;2024-02-16T20:55:45;94146.34;;;3.33;100.00
7586;BME280;12459;42.646;23.292;2024-02-16T21:10:47;93893.44;;;1.74;100.00
7586;BME280;12459;42.646;23.292;2024-02-16T21:25:49;94356.50;;;4.63;100.00
7586;BME280;12459;42.646;23.292;2024-02-16T21:40:51;94272.28;;;3.93;100.00
7586;BME280;12459;42.646;23.292;2024-02-16T21:55:55;94361.84;;;4.31;100.00
7586;BME280;12459;42.646;23.292;2024-02-16T22:10:57;94269.47;;;3.70;100.00
7586;BME280;12459;42.646;23.292;2024-02-16T22:25:59;94421.38;;;4.81;100.00
7586;BME280;12459;42.646;23.292;2024-02-16T22:41:01;94316.75;;;4.15;100.00
7586;BME280;12459;42.646;23.292;2024-02-16T22:56:04;94089.59;;;2.55;100.00
7586;BME280;12459;42.646;23.292;2024-02-16T23:11:06;94166.97;;;2.52;100.00
7586;BME280;12459;42.646;23.292;2024-02-16T23:26:09;94371.59;;;4.59;100.00
7586;BME280;12459;42.646;23.292;2024-02-16T23:41:11;94264.34;;;3.46;100.00
7586;BME280;12459;42.646;23.292;2024-02-16T23:56:13;94014.38;;;2.09;98.75
